sensor_id;sensor_type;location;lat;lon;timestamp;P1;durP1;ratioP1;P2;durP2;ratioP2
55784;SDS011;41709;52.536;5.688;2024-02-15T00:02:02;24.60;;;8.77;;
55784;SDS011;41709;52.536;5.688;2024-02-15T00:04:27;22.15;;;8.00;;
55784;SDS011;41709;52.536;5.688;2024-02-15T00:06:53;21.02;;;8.35;;
55784;SDS011;41709;52.536;5.688;2024-02-15T00:09:19;22.92;;;7.53;;
55784;SDS011;41709;52.536;5.688;2024-02-15T00:11:44;19.48;;;6.85;;
55784;SDS011;41709;52.536;5.688;2024-02-15T00:14:10;14.85;;;6.55;;
55784;SDS011;41709;52.536;5.688;2024-02-15T00:16:37;13.50;;;6.50;;
55784;SDS011;41709;52.536;5.688;2024-02-15T00:19:02;19.65;;;7.63;;
55784;SDS011;41709;52.536;5.688;2024-02-15T00:21:28;13.52;;;5.78;;
55784;SDS011;41709;52.536;5.688;2024-02-15T00:23:53;14.65;;;6.18;;
55784;SDS011;41709;52.536;5.688;2024-02-15T00:26:21;11.60;;;4.95;;
55784;SDS011;41709;52.536;5.688;2024-02-15T00:28:47;15.27;;;5.88;;
55784;SDS011;41709;52.536;5.688;2024-02-15T00:31:14;18.40;;;5.80;;
55784;SDS011;41709;52.536;5.688;2024-02-15T00:33:39;13.27;;;4.72;;
55784;SDS011;41709;52.536;5.688;2024-02-15T00:36:05;18.00;;;5.47;;
55784;SDS011;41709;52.536;5.688;2024-02-15T00:38:31;17.90;;;4.93;;
55784;SDS011;41709;52.536;5.688;2024-02-15T00:40:57;16.75;;;5.55;;
55784;SDS011;41709;52.536;5.688;2024-02-15T00:43:24;11.77;;;5.20;;
55784;SDS011;41709;52.536;5.688;2024-02-15T00:45:51;16.23;;;5.30;;
55784;SDS011;41709;52.536;5.688;2024-02-15T00:48:17;15.48;;;5.10;;
55784;SDS011;41709;52.536;5.688;2024-02-15T00:50:42;15.15;;;5.40;;
55784;SDS011;41709;52.536;5.688;2024-02-15T00:53:08;16.00;;;5.30;;
55784;SDS011;41709;52.536;5.688;2024-02-15T00:55:33;13.25;;;5.53;;
55784;SDS011;41709;52.536;5.688;2024-02-15T00:57:59;19.35;;;5.72;;
55784;SDS011;41709;52.536;5.688;2024-02-15T01:00:24;18.38;;;6.65;;
55784;SDS011;41709;52.536;5.688;2024-02-15T01:02:51;16.45;;;6.18;;
55784;SDS011;41709;52.536;5.688;2024-02-15T01:05:17;23.80;;;6.20;;
55784;SDS011;41709;52.536;5.688;2024-02-15T01:07:44;18.08;;;5.35;;
55784;SDS011;41709;52.536;5.688;2024-02-15T01:10:09;13.38;;;4.88;;
55784;SDS011;41709;52.536;5.688;2024-02-15T01:12:35;14.35;;;5.53;;
55784;SDS011;41709;52.536;5.688;2024-02-15T01:15:01;19.02;;;5.82;;
55784;SDS011;41709;52.536;5.688;2024-02-15T01:17:26;14.93;;;4.13;;
55784;SDS011;41709;52.536;5.688;2024-02-15T01:19:52;15.10;;;3.95;;
55784;SDS011;41709;52.536;5.688;2024-02-15T01:22:18;19.92;;;4.20;;
55784;SDS011;41709;52.536;5.688;2024-02-15T01:24:44;15.50;;;4.00;;
55784;SDS011;41709;52.536;5.688;2024-02-15T01:27:10;22.85;;;4.88;;
55784;SDS011;41709;52.536;5.688;2024-02-15T01:29:35;14.63;;;4.50;;
55784;SDS011;41709;52.536;5.688;2024-02-15T01:32:01;13.75;;;5.18;;
55784;SDS011;41709;52.536;5.688;2024-02-15T01:34:27;13.98;;;4.22;;
55784;SDS011;41709;52.536;5.688;2024-02-15T01:36:53;16.65;;;5.22;;
55784;SDS011;41709;52.536;5.688;2024-02-15T01:39:19;12.10;;;4.13;;
55784;SDS011;41709;52.536;5.688;2024-02-15T01:41:47;14.73;;;5.28;;
55784;SDS011;41709;52.536;5.688;2024-02-15T01:44:16;17.70;;;6.50;;
55784;SDS011;41709;52.536;5.688;2024-02-15T01:46:43;16.27;;;6.57;;
55784;SDS011;41709;52.536;5.688;2024-02-15T01:49:10;16.55;;;6.55;;
55784;SDS011;41709;52.536;5.688;2024-02-15T01:51:36;11.77;;;7.50;;
55784;SDS011;41709;52.536;5.688;2024-02-15T01:54:02;14.93;;;7.53;;
55784;SDS011;41709;52.536;5.688;2024-02-15T01:56:29;13.50;;;7.53;;
55784;SDS011;41709;52.536;5.688;2024-02-15T01:58:56;14.43;;;7.22;;
55784;SDS011;41709;52.536;5.688;2024-02-15T02:01:22;13.07;;;7.22;;
55784;SDS011;41709;52.536;5.688;2024-02-15T02:03:48;16.35;;;6.68;;
55784;SDS011;41709;52.536;5.688;2024-02-15T02:06:14;15.57;;;7.88;;
55784;SDS011;41709;52.536;5.688;2024-02-15T02:08:41;17.00;;;7.88;;
55784;SDS011;41709;52.536;5.688;2024-02-15T02:11:06;11.70;;;7.00;;
55784;SDS011;41709;52.536;5.688;2024-02-15T02:13:32;11.80;;;6.05;;
55784;SDS011;41709;52.536;5.688;2024-02-15T02:15:57;16.02;;;6.60;;
55784;SDS011;41709;52.536;5.688;2024-02-15T02:18:24;15.85;;;6.00;;
55784;SDS011;41709;52.536;5.688;2024-02-15T02:20:50;18.13;;;6.13;;
55784;SDS011;41709;52.536;5.688;2024-02-15T02:23:16;15.77;;;6.22;;
55784;SDS011;41709;52.536;5.688;2024-02-15T02:25:45;12.70;;;5.30;;
55784;SDS011;41709;52.536;5.688;2024-02-15T02:28:14;12.38;;;6.22;;
55784;SDS011;41709;52.536;5.688;2024-02-15T02:30:40;11.13;;;6.38;;
55784;SDS011;41709;52.536;5.688;2024-02-15T02:33:10;11.60;;;6.63;;
55784;SDS011;41709;52.536;5.688;2024-02-15T02:35:47;15.93;;;6.80;;
55784;SDS011;41709;52.536;5.688;2024-02-15T02:38:13;10.63;;;7.25;;
55784;SDS011;41709;52.536;5.688;2024-02-15T02:40:39;16.73;;;7.60;;
55784;SDS011;41709;52.536;5.688;2024-02-15T02:43:05;12.02;;;7.13;;
55784;SDS011;41709;52.536;5.688;2024-02-15T02:45:31;20.35;;;8.35;;
55784;SDS011;41709;52.536;5.688;2024-02-15T02:47:57;17.65;;;7.45;;
55784;SDS011;41709;52.536;5.688;2024-02-15T02:50:23;12.57;;;7.63;;
55784;SDS011;41709;52.536;5.688;2024-02-15T02:52:49;17.98;;;8.20;;
55784;SDS011;41709;52.536;5.688;2024-02-15T02:55:15;13.38;;;8.38;;
55784;SDS011;41709;52.536;5.688;2024-02-15T02:57:41;12.68;;;8.20;;
55784;SDS011;41709;52.536;5.688;2024-02-15T03:00:07;14.02;;;7.90;;
55784;SDS011;41709;52.536;5.688;2024-02-15T03:02:42;12.90;;;8.15;;
55784;SDS011;41709;52.536;5.688;2024-02-15T03:05:11;16.15;;;8.93;;
55784;SDS011;41709;52.536;5.688;2024-02-15T03:07:38;18.08;;;8.23;;
55784;SDS011;41709;52.536;5.688;2024-02-15T03:10:07;17.20;;;9.45;;
55784;SDS011;41709;52.536;5.688;2024-02-15T03:12:35;19.38;;;10.48;;
55784;SDS011;41709;52.536;5.688;2024-02-15T03:15:04;17.17;;;9.35;;
55784;SDS011;41709;52.536;5.688;2024-02-15T03:17:36;14.68;;;9.35;;
55784;SDS011;41709;52.536;5.688;2024-02-15T03:20:05;14.55;;;9.70;;
55784;SDS011;41709;52.536;5.688;2024-02-15T03:22:58;19.05;;;9.43;;
55784;SDS011;41709;52.536;5.688;2024-02-15T03:25:25;18.67;;;10.35;;
55784;SDS011;41709;52.536;5.688;2024-02-15T03:27:54;17.90;;;10.90;;
55784;SDS011;41709;52.536;5.688;2024-02-15T03:30:25;16.80;;;10.88;;
55784;SDS011;41709;52.536;5.688;2024-02-15T03:32:52;21.45;;;10.68;;
55784;SDS011;41709;52.536;5.688;2024-02-15T03:35:19;16.75;;;10.20;;
55784;SDS011;41709;52.536;5.688;2024-02-15T03:37:45;16.50;;;10.15;;
55784;SDS011;41709;52.536;5.688;2024-02-15T03:40:12;18.92;;;11.18;;
55784;SDS011;41709;52.536;5.688;2024-02-15T03:42:37;14.88;;;10.75;;
55784;SDS011;41709;52.536;5.688;2024-02-15T03:45:03;20.13;;;12.25;;
55784;SDS011;41709;52.536;5.688;2024-02-15T03:47:31;15.38;;;10.60;;
55784;SDS011;41709;52.536;5.688;2024-02-15T03:49:58;19.27;;;11.82;;
55784;SDS011;41709;52.536;5.688;2024-02-15T03:52:28;21.02;;;11.18;;
55784;SDS011;41709;52.536;5.688;2024-02-15T03:54:55;20.70;;;11.40;;
55784;SDS011;41709;52.536;5.688;2024-02-15T03:57:22;15.25;;;11.43;;
55784;SDS011;41709;52.536;5.688;2024-02-15T03:59:48;23.40;;;11.50;;
55784;SDS011;41709;52.536;5.688;2024-02-15T04:02:17;17.42;;;10.30;;
55784;SDS011;41709;52.536;5.688;2024-02-15T04:04:46;18.35;;;11.45;;
55784;SDS011;41709;52.536;5.688;2024-02-15T04:07:17;14.88;;;10.38;;
55784;SDS011;41709;52.536;5.688;2024-02-15T04:09:44;16.00;;;11.00;;
55784;SDS011;41709;52.536;5.688;2024-02-15T04:12:13;15.38;;;10.82;;
55784;SDS011;41709;52.536;5.688;2024-02-15T04:14:40;16.65;;;10.50;;
55784;SDS011;41709;52.536;5.688;2024-02-15T04:17:06;15.05;;;10.40;;
55784;SDS011;41709;52.536;5.688;2024-02-15T04:19:32;19.23;;;10.23;;
55784;SDS011;41709;52.536;5.688;2024-02-15T04:21:58;15.63;;;10.75;;
55784;SDS011;41709;52.536;5.688;2024-02-15T04:24:25;13.65;;;9.35;;
55784;SDS011;41709;52.536;5.688;2024-02-15T04:26:51;14.93;;;9.75;;
55784;SDS011;41709;52.536;5.688;2024-02-15T04:29:17;14.13;;;9.73;;
55784;SDS011;41709;52.536;5.688;2024-02-15T04:31:48;20.20;;;9.37;;
55784;SDS011;41709;52.536;5.688;2024-02-15T04:34:14;15.18;;;9.80;;
55784;SDS011;41709;52.536;5.688;2024-02-15T04:36:46;13.00;;;9.70;;
55784;SDS011;41709;52.536;5.688;2024-02-15T04:39:20;17.35;;;9.35;;
55784;SDS011;41709;52.536;5.688;2024-02-15T04:41:52;14.98;;;9.15;;
55784;SDS011;41709;52.536;5.688;2024-02-15T04:44:20;18.05;;;9.18;;
55784;SDS011;41709;52.536;5.688;2024-02-15T04:46:46;14.50;;;8.88;;
55784;SDS011;41709;52.536;5.688;2024-02-15T04:49:15;11.88;;;7.82;;
55784;SDS011;41709;52.536;5.688;2024-02-15T04:51:41;15.90;;;8.65;;
55784;SDS011;41709;52.536;5.688;2024-02-15T04:54:07;13.77;;;8.55;;
55784;SDS011;41709;52.536;5.688;2024-02-15T04:56:33;15.27;;;8.13;;
55784;SDS011;41709;52.536;5.688;2024-02-15T04:59:01;13.65;;;7.40;;
55784;SDS011;41709;52.536;5.688;2024-02-15T05:01:27;18.20;;;7.97;;
55784;SDS011;41709;52.536;5.688;2024-02-15T05:03:54;14.45;;;8.50;;
55784;SDS011;41709;52.536;5.688;2024-02-15T05:06:20;12.82;;;7.53;;
55784;SDS011;41709;52.536;5.688;2024-02-15T05:08:46;17.25;;;8.40;;
55784;SDS011;41709;52.536;5.688;2024-02-15T05:11:12;16.50;;;7.90;;
55784;SDS011;41709;52.536;5.688;2024-02-15T05:13:43;12.63;;;7.60;;
55784;SDS011;41709;52.536;5.688;2024-02-15T05:16:09;17.33;;;8.57;;
55784;SDS011;41709;52.536;5.688;2024-02-15T05:18:35;13.60;;;7.63;;
55784;SDS011;41709;52.536;5.688;2024-02-15T05:21:01;13.35;;;7.47;;
55784;SDS011;41709;52.536;5.688;2024-02-15T05:23:28;16.67;;;8.90;;
55784;SDS011;41709;52.536;5.688;2024-02-15T05:25:53;19.27;;;8.02;;
55784;SDS011;41709;52.536;5.688;2024-02-15T05:28:21;15.70;;;7.35;;
55784;SDS011;41709;52.536;5.688;2024-02-15T05:31:07;14.25;;;7.65;;
55784;SDS011;41709;52.536;5.688;2024-02-15T05:33:45;11.10;;;7.78;;
55784;SDS011;41709;52.536;5.688;2024-02-15T05:36:14;15.05;;;8.27;;
55784;SDS011;41709;52.536;5.688;2024-02-15T05:38:40;14.65;;;7.75;;
55784;SDS011;41709;52.536;5.688;2024-02-15T05:41:06;13.95;;;8.05;;
55784;SDS011;41709;52.536;5.688;2024-02-15T05:43:35;14.10;;;7.75;;
55784;SDS011;41709;52.536;5.688;2024-02-15T05:46:04;18.65;;;8.65;;
55784;SDS011;41709;52.536;5.688;2024-02-15T05:48:31;13.70;;;8.38;;
55784;SDS011;41709;52.536;5.688;2024-02-15T05:51:00;17.75;;;8.77;;
55784;SDS011;41709;52.536;5.688;2024-02-15T05:53:29;13.52;;;7.55;;
55784;SDS011;41709;52.536;5.688;2024-02-15T05:55:56;15.30;;;8.88;;
55784;SDS011;41709;52.536;5.688;2024-02-15T05:58:23;13.77;;;8.23;;
55784;SDS011;41709;52.536;5.688;2024-02-15T06:00:49;12.77;;;7.78;;
55784;SDS011;41709;52.536;5.688;2024-02-15T06:03:18;10.93;;;8.07;;
55784;SDS011;41709;52.536;5.688;2024-02-15T06:05:47;14.10;;;7.78;;
55784;SDS011;41709;52.536;5.688;2024-02-15T06:08:12;13.23;;;7.25;;
55784;SDS011;41709;52.536;5.688;2024-02-15T06:10:38;11.15;;;7.32;;
55784;SDS011;41709;52.536;5.688;2024-02-15T06:13:08;13.50;;;7.75;;
55784;SDS011;41709;52.536;5.688;2024-02-15T06:15:36;13.85;;;7.75;;
55784;SDS011;41709;52.536;5.688;2024-02-15T06:18:02;12.15;;;8.15;;
55784;SDS011;41709;52.536;5.688;2024-02-15T06:20:34;13.85;;;7.70;;
55784;SDS011;41709;52.536;5.688;2024-02-15T06:23:00;22.77;;;9.68;;
55784;SDS011;41709;52.536;5.688;2024-02-15T06:25:28;10.63;;;7.60;;
55784;SDS011;41709;52.536;5.688;2024-02-15T06:27:53;15.23;;;8.13;;
55784;SDS011;41709;52.536;5.688;2024-02-15T06:30:26;10.45;;;7.93;;
55784;SDS011;41709;52.536;5.688;2024-02-15T06:33:11;11.88;;;7.97;;
55784;SDS011;41709;52.536;5.688;2024-02-15T06:35:55;11.45;;;7.63;;
55784;SDS011;41709;52.536;5.688;2024-02-15T06:38:39;12.65;;;7.63;;
55784;SDS011;41709;52.536;5.688;2024-02-15T06:41:23;17.25;;;7.72;;
55784;SDS011;41709;52.536;5.688;2024-02-15T06:43:48;11.10;;;8.00;;
55784;SDS011;41709;52.536;5.688;2024-02-15T06:46:14;10.27;;;7.25;;
55784;SDS011;41709;52.536;5.688;2024-02-15T06:48:41;11.45;;;7.25;;
55784;SDS011;41709;52.536;5.688;2024-02-15T06:51:13;10.93;;;7.93;;
55784;SDS011;41709;52.536;5.688;2024-02-15T06:53:40;11.93;;;7.60;;
55784;SDS011;41709;52.536;5.688;2024-02-15T06:56:08;12.48;;;7.90;;
55784;SDS011;41709;52.536;5.688;2024-02-15T06:58:35;12.55;;;7.78;;
55784;SDS011;41709;52.536;5.688;2024-02-15T07:01:05;14.88;;;8.57;;
55784;SDS011;41709;52.536;5.688;2024-02-15T07:03:31;9.68;;;7.90;;
55784;SDS011;41709;52.536;5.688;2024-02-15T07:05:57;11.05;;;7.90;;
55784;SDS011;41709;52.536;5.688;2024-02-15T07:08:23;11.73;;;7.53;;
55784;SDS011;41709;52.536;5.688;2024-02-15T07:10:49;9.90;;;7.85;;
55784;SDS011;41709;52.536;5.688;2024-02-15T07:13:16;11.52;;;8.45;;
55784;SDS011;41709;52.536;5.688;2024-02-15T07:15:42;12.07;;;8.25;;
55784;SDS011;41709;52.536;5.688;2024-02-15T07:18:09;12.55;;;8.80;;
55784;SDS011;41709;52.536;5.688;2024-02-15T07:20:35;10.80;;;8.32;;
55784;SDS011;41709;52.536;5.688;2024-02-15T07:23:01;10.48;;;7.85;;
55784;SDS011;41709;52.536;5.688;2024-02-15T07:25:28;12.20;;;8.13;;
55784;SDS011;41709;52.536;5.688;2024-02-15T07:27:54;12.75;;;7.20;;
55784;SDS011;41709;52.536;5.688;2024-02-15T07:30:19;10.90;;;8.18;;
55784;SDS011;41709;52.536;5.688;2024-02-15T07:32:45;12.23;;;8.02;;
55784;SDS011;41709;52.536;5.688;2024-02-15T07:35:11;11.35;;;8.48;;
55784;SDS011;41709;52.536;5.688;2024-02-15T07:37:36;12.60;;;8.15;;
55784;SDS011;41709;52.536;5.688;2024-02-15T07:40:05;12.00;;;8.25;;
55784;SDS011;41709;52.536;5.688;2024-02-15T07:42:33;8.80;;;7.90;;
55784;SDS011;41709;52.536;5.688;2024-02-15T07:45:00;10.60;;;8.00;;
55784;SDS011;41709;52.536;5.688;2024-02-15T07:47:26;13.30;;;8.50;;
55784;SDS011;41709;52.536;5.688;2024-02-15T07:49:51;11.88;;;8.55;;
55784;SDS011;41709;52.536;5.688;2024-02-15T07:52:17;15.13;;;8.48;;
55784;SDS011;41709;52.536;5.688;2024-02-15T07:54:44;11.77;;;7.97;;
55784;SDS011;41709;52.536;5.688;2024-02-15T07:57:09;8.15;;;7.35;;
55784;SDS011;41709;52.536;5.688;2024-02-15T07:59:35;9.55;;;7.55;;
55784;SDS011;41709;52.536;5.688;2024-02-15T08:02:01;11.13;;;8.65;;
55784;SDS011;41709;52.536;5.688;2024-02-15T08:04:27;9.30;;;7.13;;
55784;SDS011;41709;52.536;5.688;2024-02-15T08:06:53;10.73;;;7.97;;
55784;SDS011;41709;52.536;5.688;2024-02-15T08:09:20;8.75;;;6.90;;
55784;SDS011;41709;52.536;5.688;2024-02-15T08:11:48;7.90;;;7.10;;
55784;SDS011;41709;52.536;5.688;2024-02-15T08:14:15;7.10;;;5.95;;
55784;SDS011;41709;52.536;5.688;2024-02-15T08:16:40;7.88;;;6.82;;
55784;SDS011;41709;52.536;5.688;2024-02-15T08:19:06;8.55;;;6.60;;
55784;SDS011;41709;52.536;5.688;2024-02-15T08:21:32;9.10;;;6.85;;
55784;SDS011;41709;52.536;5.688;2024-02-15T08:24:01;7.68;;;6.50;;
55784;SDS011;41709;52.536;5.688;2024-02-15T08:26:37;10.30;;;6.63;;
55784;SDS011;41709;52.536;5.688;2024-02-15T08:29:04;8.27;;;6.72;;
55784;SDS011;41709;52.536;5.688;2024-02-15T08:31:31;8.90;;;6.32;;
55784;SDS011;41709;52.536;5.688;2024-02-15T08:33:57;7.38;;;5.82;;
55784;SDS011;41709;52.536;5.688;2024-02-15T08:36:23;6.75;;;6.05;;
55784;SDS011;41709;52.536;5.688;2024-02-15T08:38:51;7.57;;;5.38;;
55784;SDS011;41709;52.536;5.688;2024-02-15T08:41:17;6.30;;;5.20;;
55784;SDS011;41709;52.536;5.688;2024-02-15T08:43:43;6.15;;;5.05;;
55784;SDS011;41709;52.536;5.688;2024-02-15T08:46:11;7.68;;;4.95;;
55784;SDS011;41709;52.536;5.688;2024-02-15T08:48:37;6.28;;;4.10;;
55784;SDS011;41709;52.536;5.688;2024-02-15T08:51:03;5.82;;;4.15;;
55784;SDS011;41709;52.536;5.688;2024-02-15T08:53:30;4.50;;;3.75;;
55784;SDS011;41709;52.536;5.688;2024-02-15T08:55:56;5.25;;;4.38;;
55784;SDS011;41709;52.536;5.688;2024-02-15T08:58:22;4.03;;;3.63;;
55784;SDS011;41709;52.536;5.688;2024-02-15T09:00:48;4.88;;;4.35;;
55784;SDS011;41709;52.536;5.688;2024-02-15T09:03:13;4.43;;;4.03;;
55784;SDS011;41709;52.536;5.688;2024-02-15T09:05:39;5.10;;;4.22;;
55784;SDS011;41709;52.536;5.688;2024-02-15T09:08:05;4.32;;;3.92;;
55784;SDS011;41709;52.536;5.688;2024-02-15T09:10:31;4.45;;;4.03;;
55784;SDS011;41709;52.536;5.688;2024-02-15T09:12:57;4.97;;;4.25;;
55784;SDS011;41709;52.536;5.688;2024-02-15T09:15:22;4.70;;;4.25;;
55784;SDS011;41709;52.536;5.688;2024-02-15T09:17:48;5.43;;;4.53;;
55784;SDS011;41709;52.536;5.688;2024-02-15T09:20:17;5.18;;;4.30;;
55784;SDS011;41709;52.536;5.688;2024-02-15T09:22:49;5.32;;;4.25;;
55784;SDS011;41709;52.536;5.688;2024-02-15T09:25:17;4.60;;;4.10;;
55784;SDS011;41709;52.536;5.688;2024-02-15T09:27:43;5.50;;;5.00;;
55784;SDS011;41709;52.536;5.688;2024-02-15T09:30:10;4.40;;;3.95;;
55784;SDS011;41709;52.536;5.688;2024-02-15T09:32:38;4.90;;;3.72;;
55784;SDS011;41709;52.536;5.688;2024-02-15T09:35:04;4.45;;;3.78;;
55784;SDS011;41709;52.536;5.688;2024-02-15T09:37:32;3.35;;;3.05;;
55784;SDS011;41709;52.536;5.688;2024-02-15T09:40:07;3.50;;;3.08;;
55784;SDS011;41709;52.536;5.688;2024-02-15T09:42:35;3.85;;;2.75;;
55784;SDS011;41709;52.536;5.688;2024-02-15T09:45:04;3.20;;;2.65;;
55784;SDS011;41709;52.536;5.688;2024-02-15T09:47:36;3.15;;;2.83;;
55784;SDS011;41709;52.536;5.688;2024-02-15T09:50:05;3.35;;;3.05;;
55784;SDS011;41709;52.536;5.688;2024-02-15T09:52:44;8.00;;;3.08;;
55784;SDS011;41709;52.536;5.688;2024-02-15T09:55:12;3.08;;;2.75;;
55784;SDS011;41709;52.536;5.688;2024-02-15T09:57:43;3.58;;;3.13;;
55784;SDS011;41709;52.536;5.688;2024-02-15T10:00:11;3.05;;;2.75;;
55784;SDS011;41709;52.536;5.688;2024-02-15T10:02:42;2.75;;;2.55;;
55784;SDS011;41709;52.536;5.688;2024-02-15T10:05:22;2.83;;;2.40;;
55784;SDS011;41709;52.536;5.688;2024-02-15T10:07:48;3.53;;;2.47;;
55784;SDS011;41709;52.536;5.688;2024-02-15T10:10:20;3.00;;;2.50;;
55784;SDS011;41709;52.536;5.688;2024-02-15T10:17:57;2.85;;;2.55;;
55784;SDS011;41709;52.536;5.688;2024-02-15T10:20:24;3.60;;;2.35;;
55784;SDS011;41709;52.536;5.688;2024-02-15T10:22:51;2.50;;;2.30;;
55784;SDS011;41709;52.536;5.688;2024-02-15T10:25:23;3.53;;;2.30;;
55784;SDS011;41709;52.536;5.688;2024-02-15T10:30:27;3.60;;;2.33;;
55784;SDS011;41709;52.536;5.688;2024-02-15T10:32:54;3.85;;;2.67;;
55784;SDS011;41709;52.536;5.688;2024-02-15T10:35:21;4.88;;;2.80;;
55784;SDS011;41709;52.536;5.688;2024-02-15T10:37:48;5.40;;;3.20;;
55784;SDS011;41709;52.536;5.688;2024-02-15T10:40:17;3.00;;;2.53;;
55784;SDS011;41709;52.536;5.688;2024-02-15T10:42:43;4.03;;;2.97;;
55784;SDS011;41709;52.536;5.688;2024-02-15T10:45:14;5.22;;;3.33;;
55784;SDS011;41709;52.536;5.688;2024-02-15T10:47:43;5.10;;;3.60;;
55784;SDS011;41709;52.536;5.688;2024-02-15T10:50:11;6.72;;;3.67;;
55784;SDS011;41709;52.536;5.688;2024-02-15T10:52:37;4.57;;;3.22;;
55784;SDS011;41709;52.536;5.688;2024-02-15T10:55:18;7.15;;;3.60;;
55784;SDS011;41709;52.536;5.688;2024-02-15T10:57:51;5.80;;;3.50;;
55784;SDS011;41709;52.536;5.688;2024-02-15T11:00:19;5.00;;;3.40;;
55784;SDS011;41709;52.536;5.688;2024-02-15T11:02:54;4.15;;;3.25;;
55784;SDS011;41709;52.536;5.688;2024-02-15T11:05:33;4.32;;;3.00;;
55784;SDS011;41709;52.536;5.688;2024-02-15T11:08:02;3.42;;;2.90;;
55784;SDS011;41709;52.536;5.688;2024-02-15T11:10:33;4.85;;;3.38;;
55784;SDS011;41709;52.536;5.688;2024-02-15T11:13:00;5.07;;;3.67;;
55784;SDS011;41709;52.536;5.688;2024-02-15T11:18:01;5.75;;;3.33;;
55784;SDS011;41709;52.536;5.688;2024-02-15T11:23:00;5.07;;;3.40;;
55784;SDS011;41709;52.536;5.688;2024-02-15T11:25:32;5.57;;;3.50;;
55784;SDS011;41709;52.536;5.688;2024-02-15T11:30:48;6.82;;;3.60;;
55784;SDS011;41709;52.536;5.688;2024-02-15T11:36:05;7.85;;;4.22;;
55784;SDS011;41709;52.536;5.688;2024-02-15T11:38:35;7.10;;;4.20;;
55784;SDS011;41709;52.536;5.688;2024-02-15T11:41:05;11.85;;;4.55;;
55784;SDS011;41709;52.536;5.688;2024-02-15T11:46:27;7.03;;;4.47;;
55784;SDS011;41709;52.536;5.688;2024-02-15T11:48:57;10.38;;;4.30;;
55784;SDS011;41709;52.536;5.688;2024-02-15T11:51:28;9.50;;;4.60;;
55784;SDS011;41709;52.536;5.688;2024-02-15T11:54:10;8.32;;;4.30;;
55784;SDS011;41709;52.536;5.688;2024-02-15T11:59:08;6.70;;;4.00;;
55784;SDS011;41709;52.536;5.688;2024-02-15T12:01:37;14.38;;;5.82;;
55784;SDS011;41709;52.536;5.688;2024-02-15T12:04:22;8.65;;;3.83;;
55784;SDS011;41709;52.536;5.688;2024-02-15T12:07:06;7.97;;;5.20;;
55784;SDS011;41709;52.536;5.688;2024-02-15T12:09:57;7.20;;;3.72;;
55784;SDS011;41709;52.536;5.688;2024-02-15T12:12:50;10.05;;;4.22;;
55784;SDS011;41709;52.536;5.688;2024-02-15T12:15:34;9.25;;;4.80;;
55784;SDS011;41709;52.536;5.688;2024-02-15T12:18:19;10.32;;;3.88;;
55784;SDS011;41709;52.536;5.688;2024-02-15T12:21:03;9.43;;;4.97;;
55784;SDS011;41709;52.536;5.688;2024-02-15T12:23:30;7.90;;;4.10;;
55784;SDS011;41709;52.536;5.688;2024-02-15T12:25:58;8.48;;;4.30;;
55784;SDS011;41709;52.536;5.688;2024-02-15T12:28:25;9.77;;;4.78;;
55784;SDS011;41709;52.536;5.688;2024-02-15T12:30:54;7.85;;;4.10;;
55784;SDS011;41709;52.536;5.688;2024-02-15T12:33:23;9.75;;;4.03;;
55784;SDS011;41709;52.536;5.688;2024-02-15T12:35:49;6.85;;;4.20;;
55784;SDS011;41709;52.536;5.688;2024-02-15T12:38:17;8.88;;;4.53;;
55784;SDS011;41709;52.536;5.688;2024-02-15T12:40:43;7.30;;;4.90;;
55784;SDS011;41709;52.536;5.688;2024-02-15T12:43:10;8.55;;;4.28;;
55784;SDS011;41709;52.536;5.688;2024-02-15T12:45:37;12.45;;;5.80;;
55784;SDS011;41709;52.536;5.688;2024-02-15T12:48:04;12.57;;;5.32;;
55784;SDS011;41709;52.536;5.688;2024-02-15T12:50:31;16.65;;;4.90;;
55784;SDS011;41709;52.536;5.688;2024-02-15T12:52:57;7.78;;;4.63;;
55784;SDS011;41709;52.536;5.688;2024-02-15T12:55:29;9.18;;;5.63;;
55784;SDS011;41709;52.536;5.688;2024-02-15T12:58:02;8.93;;;4.82;;
55784;SDS011;41709;52.536;5.688;2024-02-15T13:00:33;8.90;;;4.72;;
55784;SDS011;41709;52.536;5.688;2024-02-15T13:03:05;10.73;;;5.28;;
55784;SDS011;41709;52.536;5.688;2024-02-15T13:05:34;5.57;;;4.30;;
55784;SDS011;41709;52.536;5.688;2024-02-15T13:08:03;8.98;;;4.88;;
55784;SDS011;41709;52.536;5.688;2024-02-15T13:10:38;8.43;;;4.82;;
55784;SDS011;41709;52.536;5.688;2024-02-15T13:13:04;10.52;;;5.45;;
55784;SDS011;41709;52.536;5.688;2024-02-15T13:15:30;11.90;;;5.38;;
55784;SDS011;41709;52.536;5.688;2024-02-15T13:17:59;9.68;;;4.43;;
55784;SDS011;41709;52.536;5.688;2024-02-15T13:20:26;12.77;;;6.20;;
55784;SDS011;41709;52.536;5.688;2024-02-15T13:22:59;9.20;;;4.95;;
55784;SDS011;41709;52.536;5.688;2024-02-15T13:25:53;9.05;;;5.50;;
55784;SDS011;41709;52.536;5.688;2024-02-15T13:28:21;9.90;;;5.57;;
55784;SDS011;41709;52.536;5.688;2024-02-15T13:30:47;11.77;;;5.78;;
55784;SDS011;41709;52.536;5.688;2024-02-15T13:33:14;13.35;;;6.03;;
55784;SDS011;41709;52.536;5.688;2024-02-15T13:35:40;10.00;;;5.30;;
55784;SDS011;41709;52.536;5.688;2024-02-15T13:38:06;15.07;;;6.45;;
55784;SDS011;41709;52.536;5.688;2024-02-15T13:40:34;10.70;;;6.60;;
55784;SDS011;41709;52.536;5.688;2024-02-15T13:43:00;11.50;;;5.88;;
55784;SDS011;41709;52.536;5.688;2024-02-15T13:45:34;11.77;;;5.70;;
55784;SDS011;41709;52.536;5.688;2024-02-15T13:48:04;11.98;;;5.53;;
55784;SDS011;41709;52.536;5.688;2024-02-15T13:50:32;8.77;;;6.13;;
55784;SDS011;41709;52.536;5.688;2024-02-15T13:52:57;10.48;;;5.88;;
55784;SDS011;41709;52.536;5.688;2024-02-15T13:55:24;7.78;;;4.90;;
55784;SDS011;41709;52.536;5.688;2024-02-15T13:57:54;8.02;;;4.90;;
55784;SDS011;41709;52.536;5.688;2024-02-15T14:00:23;7.47;;;5.55;;
55784;SDS011;41709;52.536;5.688;2024-02-15T14:02:58;10.00;;;5.60;;
55784;SDS011;41709;52.536;5.688;2024-02-15T14:05:26;11.07;;;5.43;;
55784;SDS011;41709;52.536;5.688;2024-02-15T14:07:59;9.13;;;4.78;;
55784;SDS011;41709;52.536;5.688;2024-02-15T14:10:26;8.02;;;4.50;;
55784;SDS011;41709;52.536;5.688;2024-02-15T14:12:53;5.90;;;4.75;;
55784;SDS011;41709;52.536;5.688;2024-02-15T14:15:29;7.18;;;4.43;;
55784;SDS011;41709;52.536;5.688;2024-02-15T14:17:55;9.13;;;4.70;;
55784;SDS011;41709;52.536;5.688;2024-02-15T14:20:21;8.27;;;4.80;;
55784;SDS011;41709;52.536;5.688;2024-02-15T14:22:47;8.65;;;4.50;;
55784;SDS011;41709;52.536;5.688;2024-02-15T14:25:18;7.38;;;3.55;;
55784;SDS011;41709;52.536;5.688;2024-02-15T14:27:44;6.35;;;3.58;;
55784;SDS011;41709;52.536;5.688;2024-02-15T14:30:10;5.35;;;3.45;;
55784;SDS011;41709;52.536;5.688;2024-02-15T14:32:54;4.72;;;3.50;;
55784;SDS011;41709;52.536;5.688;2024-02-15T14:35:26;4.28;;;3.08;;
55784;SDS011;41709;52.536;5.688;2024-02-15T14:40:24;5.45;;;3.50;;
55784;SDS011;41709;52.536;5.688;2024-02-15T14:42:50;8.93;;;4.65;;
55784;SDS011;41709;52.536;5.688;2024-02-15T14:45:15;6.60;;;3.35;;
55784;SDS011;41709;52.536;5.688;2024-02-15T14:47:41;8.23;;;3.00;;
55784;SDS011;41709;52.536;5.688;2024-02-15T14:50:09;5.80;;;3.33;;
55784;SDS011;41709;52.536;5.688;2024-02-15T14:52:37;5.40;;;3.38;;
55784;SDS011;41709;52.536;5.688;2024-02-15T14:55:03;6.80;;;3.38;;
55784;SDS011;41709;52.536;5.688;2024-02-15T14:57:30;4.72;;;2.65;;
55784;SDS011;41709;52.536;5.688;2024-02-15T14:59:57;6.32;;;2.97;;
55784;SDS011;41709;52.536;5.688;2024-02-15T15:02:23;6.50;;;2.60;;
55784;SDS011;41709;52.536;5.688;2024-02-15T15:04:49;3.80;;;2.72;;
55784;SDS011;41709;52.536;5.688;2024-02-15T15:07:33;5.28;;;2.88;;
55784;SDS011;41709;52.536;5.688;2024-02-15T15:10:17;10.00;;;2.95;;
55784;SDS011;41709;52.536;5.688;2024-02-15T15:13:01;6.05;;;2.33;;